createdAt,value
2022-11-15T00:00:31.590Z,10.95
2022-11-15T00:02:58.047Z,9.93
2022-11-15T00:05:24.545Z,11.30
2022-11-15T00:07:58.071Z,11.13
2022-11-15T00:10:24.543Z,10.48
2022-11-15T00:12:50.939Z,11.65
2022-11-15T00:15:17.399Z,10.38
2022-11-15T00:17:43.835Z,11.13
2022-11-15T00:20:10.764Z,11.85
2022-11-15T00:22:37.195Z,11.90
2022-11-15T00:25:04.377Z,10.13
2022-11-15T00:27:30.785Z,9.70
2022-11-15T00:29:57.255Z,10.55
2022-11-15T00:32:23.672Z,11.25
2022-11-15T00:34:50.102Z,10.57
2022-11-15T00:37:16.563Z,10.35
2022-11-15T00:39:43.022Z,9.80
2022-11-15T00:42:09.469Z,10.43
2022-11-15T00:44:35.968Z,11.13
2022-11-15T00:47:02.367Z,11.13
2022-11-15T00:49:28.798Z,11.30
2022-11-15T00:51:55.271Z,11.77
2022-11-15T00:54:21.741Z,10.85
2022-11-15T00:56:48.198Z,11.52
2022-11-15T00:59:14.662Z,13.10
2022-11-15T01:01:41.091Z,12.75
2022-11-15T01:04:07.574Z,12.23
2022-11-15T01:06:34.005Z,12.13
2022-11-15T01:09:00.410Z,11.80
2022-11-15T01:11:26.860Z,12.45
2022-11-15T01:13:53.306Z,10.25
2022-11-15T01:16:19.812Z,10.98
2022-11-15T01:18:46.795Z,10.48
2022-11-15T01:21:19.080Z,11.15
2022-11-15T01:23:45.994Z,11.57
2022-11-15T01:26:15.593Z,11.75
2022-11-15T01:28:42.770Z,10.52
2022-11-15T01:31:18.789Z,9.35
2022-11-15T01:33:45.970Z,11.48
2022-11-15T01:36:15.767Z,11.38
2022-11-15T01:38:42.504Z,9.57
2022-11-15T01:41:17.343Z,10.40
2022-11-15T01:43:43.956Z,9.75
2022-11-15T01:46:20.278Z,6.55
2022-11-15T01:48:46.698Z,6.53
2022-11-15T01:51:17.008Z,8.35
2022-11-15T01:53:48.792Z,7.78
2022-11-15T01:56:19.253Z,8.32
2022-11-15T01:58:46.654Z,7.30
2022-11-15T02:01:15.957Z,7.53
2022-11-15T02:03:53.140Z,7.43
2022-11-15T02:06:21.072Z,8.27
2022-11-15T02:08:48.124Z,6.85
2022-11-15T02:11:14.563Z,5.68
2022-11-15T02:13:41.218Z,7.80
2022-11-15T02:16:16.862Z,7.22
2022-11-15T02:18:52.625Z,6.25
2022-11-15T02:21:42.037Z,6.93
2022-11-15T02:24:20.701Z,6.65
2022-11-15T02:27:29.073Z,6.88
2022-11-15T02:29:55.432Z,5.40
2022-11-15T02:32:44.474Z,4.22
2022-11-15T02:35:44.245Z,5.78
2022-11-15T02:38:26.963Z,3.55
2022-11-15T02:40:55.824Z,6.40
2022-11-15T02:44:08.979Z,6.82
2022-11-15T02:47:00.279Z,6.38
2022-11-15T02:49:30.997Z,2.13
2022-11-15T02:51:57.474Z,5.50
2022-11-15T02:54:26.490Z,6.18
2022-11-15T02:56:56.946Z,7.05
2022-11-15T02:59:29.203Z,6.35
2022-11-15T03:02:07.419Z,7.38
2022-11-15T03:04:59.727Z,5.78
2022-11-15T03:07:47.152Z,6.18
2022-11-15T03:10:31.763Z,4.30
2022-11-15T03:13:30.437Z,6.78
2022-11-15T03:16:30.490Z,6.78
2022-11-15T03:19:05.138Z,7.45
2022-11-15T03:21:34.965Z,5.90
2022-11-15T03:24:07.178Z,6.82
2022-11-15T03:26:36.437Z,6.80
2022-11-15T03:29:12.528Z,7.13
2022-11-15T03:31:50.321Z,6.35
2022-11-15T03:34:30.181Z,7.15
2022-11-15T03:36:57.073Z,6.25
2022-11-15T03:39:25.210Z,5.45
2022-11-15T03:42:13.585Z,7.00
2022-11-15T03:45:09.342Z,7.07
2022-11-15T03:47:39.831Z,6.40
2022-11-15T03:50:12.696Z,6.60
2022-11-15T03:52:41.903Z,6.90
2022-11-15T03:55:13.863Z,6.47
2022-11-15T03:57:40.357Z,6.65
2022-11-15T04:00:07.649Z,4.75
2022-11-15T04:02:34.064Z,6.75
2022-11-15T04:05:00.526Z,6.50
2022-11-15T04:07:27.158Z,6.72
2022-11-15T04:10:06.546Z,6.75
2022-11-15T04:12:38.480Z,6.65
2022-11-15T04:15:10.987Z,5.93
2022-11-15T04:17:47.364Z,6.75
2022-11-15T04:20:37.598Z,6.63
2022-11-15T04:23:25.844Z,6.80
2022-11-15T04:25:54.819Z,7.13
2022-11-15T04:28:21.932Z,5.75
2022-11-15T04:30:48.546Z,6.25
2022-11-15T04:33:15.257Z,6.78
2022-11-15T04:35:43.531Z,7.63
2022-11-15T04:38:11.679Z,6.65
2022-11-15T04:40:39.110Z,5.68
2022-11-15T04:43:05.895Z,6.00
2022-11-15T04:45:32.424Z,6.57
2022-11-15T04:47:58.936Z,6.68
2022-11-15T04:50:25.412Z,4.75
2022-11-15T04:52:54.256Z,5.32
2022-11-15T04:55:21.275Z,6.72
2022-11-15T04:57:47.743Z,6.43
2022-11-15T05:00:16.279Z,5.40
2022-11-15T05:03:01.597Z,5.65
2022-11-15T05:05:28.010Z,6.13
2022-11-15T05:07:54.444Z,6.60
2022-11-15T05:10:20.864Z,5.97
2022-11-15T05:12:47.890Z,6.22
2022-11-15T05:15:14.389Z,6.20
2022-11-15T05:17:40.842Z,5.70
2022-11-15T05:20:07.926Z,5.65
2022-11-15T05:22:34.363Z,6.22
2022-11-15T05:25:00.806Z,6.28
2022-11-15T05:27:27.293Z,6.25
2022-11-15T05:29:53.714Z,5.82
2022-11-15T05:32:20.132Z,5.85
2022-11-15T05:34:47.238Z,6.05
2022-11-15T05:37:15.044Z,5.78
2022-11-15T05:39:41.500Z,5.60
2022-11-15T05:42:14.046Z,5.80
2022-11-15T05:44:45.496Z,5.40
2022-11-15T05:47:17.473Z,5.57
2022-11-15T05:49:45.639Z,6.07
2022-11-15T05:52:16.991Z,5.70
2022-11-15T05:54:44.314Z,5.03
2022-11-15T05:57:11.001Z,2.28
2022-11-15T05:59:38.084Z,6.40
2022-11-15T06:02:04.581Z,4.85
2022-11-15T06:04:31.070Z,6.53
2022-11-15T06:06:59.907Z,6.38
2022-11-15T06:09:26.339Z,5.85
2022-11-15T06:11:52.729Z,7.40
2022-11-15T06:14:19.121Z,7.57
2022-11-15T06:16:45.549Z,7.68
2022-11-15T06:19:11.950Z,7.57
2022-11-15T06:21:38.359Z,7.93
2022-11-15T06:24:05.877Z,8.63
2022-11-15T06:26:32.600Z,7.60
2022-11-15T06:28:59.094Z,8.27
2022-11-15T06:31:25.512Z,8.18
2022-11-15T06:33:52.023Z,6.43
2022-11-15T06:36:18.645Z,7.72
2022-11-15T06:38:45.709Z,6.63
2022-11-15T06:41:13.928Z,6.53
2022-11-15T06:43:41.050Z,6.40
2022-11-15T06:46:08.391Z,7.20
2022-11-15T06:48:35.517Z,6.57
2022-11-15T06:51:04.078Z,4.22
2022-11-15T06:53:32.384Z,5.60
2022-11-15T06:56:06.513Z,6.57
2022-11-15T06:58:33.249Z,5.75
2022-11-15T07:01:09.272Z,7.07
2022-11-15T07:03:40.823Z,5.90
2022-11-15T07:06:08.381Z,6.30
2022-11-15T07:08:36.060Z,6.20
2022-11-15T07:11:05.219Z,6.47
2022-11-15T07:13:36.551Z,6.40
2022-11-15T07:16:08.147Z,6.18
2022-11-15T07:18:36.343Z,6.13
2022-11-15T07:21:04.627Z,5.43
2022-11-15T07:23:31.834Z,5.38
2022-11-15T07:25:59.465Z,4.90
2022-11-15T07:28:27.487Z,5.22
2022-11-15T07:30:54.553Z,2.78
2022-11-15T07:33:21.271Z,3.92
2022-11-15T07:35:50.563Z,4.82
2022-11-15T07:38:20.529Z,1.85
2022-11-15T07:40:48.400Z,3.08
2022-11-15T07:43:14.860Z,3.08
2022-11-15T07:45:45.876Z,2.55
2022-11-15T07:48:12.842Z,3.13
2022-11-15T07:50:43.017Z,3.40
2022-11-15T07:53:11.356Z,2.70
2022-11-15T07:55:37.841Z,3.00
2022-11-15T07:58:06.002Z,3.15
2022-11-15T08:00:33.055Z,2.42
2022-11-15T08:03:11.363Z,2.80
2022-11-15T08:05:39.168Z,1.42
2022-11-15T08:08:06.619Z,2.72
2022-11-15T08:10:36.433Z,2.83
2022-11-15T08:13:11.470Z,2.20
2022-11-15T08:15:38.510Z,2.50
2022-11-15T08:18:16.269Z,2.58
2022-11-15T08:20:43.809Z,2.85
2022-11-15T08:23:12.680Z,2.08
2022-11-15T08:25:39.615Z,2.47
2022-11-15T08:28:08.373Z,2.80
2022-11-15T08:30:43.506Z,2.28
2022-11-15T08:33:14.989Z,2.42
2022-11-15T08:35:43.347Z,1.88
2022-11-15T08:38:10.124Z,2.28
2022-11-15T08:40:37.042Z,2.08
2022-11-15T08:43:04.012Z,1.85
2022-11-15T08:45:31.543Z,2.40
2022-11-15T08:47:58.227Z,2.22
2022-11-15T08:50:24.796Z,1.65
2022-11-15T08:52:51.336Z,2.33
2022-11-15T08:55:17.956Z,1.48
2022-11-15T08:57:44.713Z,2.00
2022-11-15T09:00:12.763Z,2.42
2022-11-15T09:02:40.694Z,0.70
2022-11-15T09:05:08.092Z,0.82
2022-11-15T09:07:34.593Z,1.90
2022-11-15T09:10:01.072Z,2.50
2022-11-15T09:12:27.683Z,2.15
2022-11-15T09:14:54.139Z,1.98
2022-11-15T09:17:24.730Z,1.45
2022-11-15T09:19:51.836Z,1.65
2022-11-15T09:22:18.803Z,2.15
2022-11-15T09:24:45.247Z,1.58
2022-11-15T09:27:11.767Z,2.50
2022-11-15T09:29:38.195Z,2.17
2022-11-15T09:32:05.027Z,1.95
2022-11-15T09:34:31.508Z,0.88
2022-11-15T09:36:57.930Z,2.72
2022-11-15T09:39:24.375Z,1.38
2022-11-15T09:41:53.538Z,1.45
2022-11-15T09:44:25.364Z,1.17
2022-11-15T09:47:40.088Z,1.65
2022-11-15T09:50:18.344Z,1.58
2022-11-15T09:52:46.594Z,0.93
2022-11-15T09:55:22.202Z,1.30
2022-11-15T09:57:57.618Z,1.35
2022-11-15T10:03:37.179Z,1.10
2022-11-15T10:06:06.947Z,1.48
2022-11-15T10:08:57.951Z,0.90
2022-11-15T10:11:39.623Z,0.52
2022-11-15T10:14:20.718Z,1.38
2022-11-15T10:17:14.790Z,0.82
2022-11-15T10:20:00.796Z,1.73
2022-11-15T10:22:38.617Z,1.27
2022-11-15T10:25:11.389Z,1.27
2022-11-15T10:27:39.505Z,1.70
2022-11-15T10:30:13.438Z,1.67
2022-11-15T10:32:41.585Z,1.33
2022-11-15T10:35:20.046Z,1.63
2022-11-15T10:37:46.532Z,0.40
2022-11-15T10:40:25.377Z,0.55
2022-11-15T10:43:05.604Z,0.68
2022-11-15T10:45:33.877Z,0.50
2022-11-15T10:48:15.349Z,1.00
2022-11-15T10:50:42.711Z,0.88
2022-11-15T10:53:18.244Z,0.88
2022-11-15T10:55:49.430Z,1.35
2022-11-15T10:58:21.916Z,0.60
2022-11-15T11:00:48.549Z,0.70
2022-11-15T11:03:30.739Z,0.95
2022-11-15T11:06:06.401Z,1.60
2022-11-15T11:08:33.718Z,0.70
2022-11-15T11:11:03.377Z,0.80
2022-11-15T11:13:40.799Z,1.20
2022-11-15T11:16:24.318Z,0.80
2022-11-15T11:19:03.675Z,1.15
2022-11-15T11:21:51.927Z,0.60
2022-11-15T11:24:33.576Z,0.98
2022-11-15T11:27:00.041Z,1.15
2022-11-15T11:29:29.365Z,1.10
2022-11-15T11:32:20.143Z,1.00
2022-11-15T11:35:30.538Z,1.38
2022-11-15T11:38:34.683Z,1.10
2022-11-15T11:41:06.053Z,0.60
2022-11-15T11:44:00.491Z,0.80
2022-11-15T11:47:02.112Z,0.20
2022-11-15T11:49:49.752Z,0.90
2022-11-15T11:52:29.335Z,0.77
2022-11-15T11:55:16.368Z,1.25
2022-11-15T11:58:20.856Z,0.43
2022-11-15T12:00:57.198Z,1.10
2022-11-15T12:03:38.275Z,1.20
2022-11-15T12:06:36.808Z,0.85
2022-11-15T12:09:14.374Z,1.15
2022-11-15T12:12:07.639Z,0.68
2022-11-15T12:14:34.068Z,0.77
2022-11-15T12:17:01.002Z,1.00
2022-11-15T12:19:29.480Z,0.45
2022-11-15T12:22:20.052Z,0.98
2022-11-15T12:24:46.423Z,0.35
2022-11-15T12:27:26.396Z,0.35
2022-11-15T12:29:57.766Z,1.05
2022-11-15T12:32:27.183Z,0.77
2022-11-15T12:34:54.884Z,0.35
2022-11-15T12:37:57.344Z,0.47
2022-11-15T12:40:28.254Z,0.50
2022-11-15T12:43:14.920Z,0.65
2022-11-15T12:45:43.827Z,0.95
2022-11-15T12:48:16.383Z,1.30
2022-11-15T12:50:52.594Z,0.98
2022-11-15T12:53:28.431Z,1.10
2022-11-15T12:56:12.984Z,0.90
2022-11-15T12:58:58.499Z,1.02
2022-11-15T13:01:34.369Z,1.38
2022-11-15T13:04:16.160Z,1.27
2022-11-15T13:06:44.898Z,1.42
2022-11-15T13:09:30.088Z,0.50
2022-11-15T13:17:56.967Z,0.95
2022-11-15T13:20:29.387Z,1.70
2022-11-15T13:23:12.953Z,1.00
2022-11-15T13:26:09.999Z,1.15
2022-11-15T13:28:43.300Z,1.13
2022-11-15T13:31:40.820Z,1.10
2022-11-15T13:37:23.565Z,1.10
2022-11-15T13:39:50.722Z,0.93
2022-11-15T13:42:20.009Z,1.70
2022-11-15T13:44:59.049Z,1.08
2022-11-15T13:47:30.069Z,1.02
2022-11-15T13:50:01.986Z,0.88
2022-11-15T13:52:34.461Z,0.85
2022-11-15T13:55:08.500Z,1.20
2022-11-15T13:57:41.075Z,1.10
2022-11-15T14:00:23.638Z,0.95
2022-11-15T14:02:50.179Z,1.10
2022-11-15T14:05:20.340Z,1.23
2022-11-15T14:08:26.028Z,1.30
2022-11-15T14:11:28.498Z,0.88
2022-11-15T14:14:09.895Z,1.38
2022-11-15T14:16:42.007Z,1.48
2022-11-15T14:19:13.168Z,1.27
2022-11-15T14:22:11.658Z,1.02
2022-11-15T14:24:39.187Z,1.25
2022-11-15T14:27:26.699Z,1.10
2022-11-15T14:29:54.016Z,1.15
2022-11-15T14:32:23.182Z,1.40
2022-11-15T14:35:00.705Z,1.10
2022-11-15T14:37:29.489Z,1.30
2022-11-15T14:39:56.230Z,1.63
2022-11-15T14:42:25.499Z,1.48
2022-11-15T14:44:52.581Z,1.45
2022-11-15T14:47:19.630Z,1.77
2022-11-15T14:49:46.125Z,1.67
2022-11-15T14:52:45.267Z,2.03
2022-11-15T14:55:35.223Z,2.17
2022-11-15T14:58:03.929Z,1.70
2022-11-15T15:00:35.346Z,2.28
2022-11-15T15:03:02.944Z,2.33
2022-11-15T15:05:40.409Z,1.63
2022-11-15T15:08:08.011Z,2.10
2022-11-15T15:10:43.363Z,2.00
